createdAt,value
2018-07-19T00:00:17.142Z,18.26
2018-07-19T00:01:17.057Z,18.18
2018-07-19T00:03:09.823Z,18.12
2018-07-19T00:04:09.736Z,18.11
2018-07-19T00:06:02.731Z,18.18
2018-07-19T00:07:02.661Z,18.17
2018-07-19T00:08:55.429Z,18.08
2018-07-19T00:09:55.342Z,18.03
2018-07-19T00:11:48.358Z,18.00
2018-07-19T00:12:48.294Z,18.02
2018-07-19T00:14:41.073Z,18.03
2018-07-19T00:15:40.989Z,18.02
2018-07-19T00:17:33.763Z,18.00
2018-07-19T00:18:33.676Z,17.95
2018-07-19T00:20:26.441Z,17.99
2018-07-19T00:21:26.359Z,17.96
2018-07-19T00:23:19.126Z,17.90
2018-07-19T00:24:19.067Z,17.87
2018-07-19T00:26:12.036Z,17.77
2018-07-19T00:27:11.959Z,17.79
2018-07-19T00:29:04.811Z,17.99
2018-07-19T00:30:04.665Z,17.99
2018-07-19T00:31:57.745Z,18.00
2018-07-19T00:32:57.675Z,18.02
2018-07-19T00:34:50.453Z,17.99
2018-07-19T00:35:50.360Z,17.99
2018-07-19T00:37:43.687Z,17.89
2018-07-19T00:38:43.620Z,17.86
2018-07-19T00:40:36.412Z,17.87
2018-07-19T00:41:36.302Z,17.75
2018-07-19T00:43:29.073Z,17.72
2018-07-19T00:44:28.979Z,17.66
2018-07-19T00:46:21.746Z,17.54
2018-07-19T00:47:21.667Z,17.46
2018-07-19T00:49:14.505Z,17.40
2018-07-19T00:50:14.414Z,17.38
2018-07-19T00:52:07.173Z,17.38
2018-07-19T00:53:07.106Z,17.34
2018-07-19T00:55:00.137Z,17.31
2018-07-19T00:56:00.056Z,17.26
2018-07-19T00:57:52.811Z,17.31
2018-07-19T00:58:52.736Z,17.40
2018-07-19T01:00:45.506Z,17.30
2018-07-19T01:01:45.418Z,17.23
2018-07-19T01:03:38.187Z,17.28
2018-07-19T01:04:38.105Z,17.22
2018-07-19T01:06:30.865Z,17.38
2018-07-19T01:07:30.791Z,17.16
2018-07-19T01:09:23.558Z,17.23
2018-07-19T01:10:23.470Z,17.18
2018-07-19T01:12:16.462Z,17.18
2018-07-19T01:13:16.393Z,17.25
2018-07-19T01:15:09.163Z,17.22
2018-07-19T01:16:09.078Z,17.36
2018-07-19T01:18:02.082Z,17.23
2018-07-19T01:19:01.995Z,17.21
2018-07-19T01:20:55.017Z,17.15
2018-07-19T01:21:54.930Z,17.15
2018-07-19T01:23:47.707Z,17.11
2018-07-19T01:24:47.619Z,17.06
2018-07-19T01:26:40.413Z,17.01
2018-07-19T01:27:40.336Z,17.01
2018-07-19T01:29:33.099Z,16.89
2018-07-19T01:30:33.014Z,16.89
2018-07-19T01:32:25.771Z,16.91
2018-07-19T01:33:25.691Z,16.94
2018-07-19T01:35:18.729Z,16.89
2018-07-19T01:36:18.635Z,16.93
2018-07-19T01:38:11.391Z,16.89
2018-07-19T01:39:11.317Z,16.88
2018-07-19T01:41:04.327Z,16.78
2018-07-19T01:42:04.242Z,16.75
2018-07-19T01:43:57.251Z,16.79
2018-07-19T01:44:57.170Z,16.81
2018-07-19T01:46:49.930Z,16.75
2018-07-19T01:47:49.860Z,16.76
2018-07-19T01:48:49.784Z,16.64
2018-07-19T01:49:49.708Z,16.70
2018-07-19T01:50:49.633Z,16.70
2018-07-19T01:51:49.563Z,16.64
2018-07-19T01:52:49.489Z,16.64
2018-07-19T01:53:49.419Z,16.66
2018-07-19T01:54:49.362Z,16.64
2018-07-19T01:55:49.274Z,16.71
2018-07-19T01:56:49.218Z,16.58
2018-07-19T01:57:49.132Z,16.52
2018-07-19T01:58:49.063Z,16.50
2018-07-19T01:59:48.986Z,16.39
2018-07-19T02:00:48.917Z,16.38
2018-07-19T02:01:48.842Z,16.39
2018-07-19T02:02:48.771Z,16.27
2018-07-19T02:03:48.698Z,16.21
2018-07-19T02:04:48.628Z,16.25
2018-07-19T02:05:48.555Z,16.17
2018-07-19T02:06:48.486Z,16.24
2018-07-19T02:07:48.420Z,16.21
2018-07-19T02:08:48.340Z,16.25
2018-07-19T02:09:48.268Z,16.09
2018-07-19T02:10:48.196Z,16.08
2018-07-19T02:11:48.123Z,16.11
2018-07-19T02:12:48.054Z,16.12
2018-07-19T02:13:47.982Z,16.12
2018-07-19T02:14:47.906Z,16.05
2018-07-19T02:15:47.835Z,16.25
2018-07-19T02:16:47.763Z,16.25
2018-07-19T02:17:47.690Z,16.15
2018-07-19T02:18:47.620Z,16.12
2018-07-19T02:19:47.549Z,16.02
2018-07-19T02:20:47.472Z,16.01
2018-07-19T02:21:47.404Z,16.00
2018-07-19T02:22:47.331Z,15.96
2018-07-19T02:23:47.260Z,15.96
2018-07-19T02:24:47.186Z,16.00
2018-07-19T02:25:47.112Z,15.93
2018-07-19T02:26:47.040Z,15.92
2018-07-19T02:27:46.966Z,15.86
2018-07-19T02:28:46.901Z,15.92
2018-07-19T02:29:46.826Z,15.92
2018-07-19T02:30:46.753Z,15.93
2018-07-19T02:31:46.680Z,16.04
2018-07-19T02:32:46.607Z,16.01
2018-07-19T02:33:46.531Z,15.80
2018-07-19T02:34:46.458Z,15.93
2018-07-19T02:35:46.388Z,15.76
2018-07-19T02:36:46.315Z,15.74
2018-07-19T02:37:46.245Z,15.69
2018-07-19T02:38:46.182Z,15.67
2018-07-19T02:39:46.125Z,15.71
2018-07-19T02:40:46.034Z,15.69
2018-07-19T02:41:45.962Z,15.71
2018-07-19T02:42:45.892Z,15.82
2018-07-19T02:43:45.851Z,15.82
2018-07-19T02:44:45.738Z,15.82
2018-07-19T02:45:45.668Z,15.82
2018-07-19T02:46:45.595Z,15.87
2018-07-19T02:47:45.520Z,15.80
2018-07-19T02:48:45.452Z,15.83
2018-07-19T02:49:45.376Z,15.82
2018-07-19T02:50:45.308Z,15.80
2018-07-19T02:51:45.232Z,15.83
2018-07-19T02:52:45.161Z,15.71
2018-07-19T02:53:45.088Z,15.71
2018-07-19T02:54:45.017Z,15.76
2018-07-19T02:55:44.951Z,15.74
2018-07-19T02:56:44.868Z,15.67
2018-07-19T02:57:44.797Z,15.72
2018-07-19T02:58:44.762Z,15.62
2018-07-19T02:59:44.654Z,15.71
2018-07-19T03:00:44.581Z,15.72
2018-07-19T03:01:44.507Z,15.72
2018-07-19T03:02:44.439Z,15.80
2018-07-19T03:03:44.365Z,15.86
2018-07-19T03:04:44.292Z,15.82
2018-07-19T03:05:44.218Z,15.84
2018-07-19T03:06:44.149Z,15.80
2018-07-19T03:07:44.129Z,15.76
2018-07-19T03:08:44.001Z,15.71
2018-07-19T03:09:43.931Z,15.75
2018-07-19T03:10:43.906Z,15.67
2018-07-19T03:11:43.798Z,15.69
2018-07-19T03:12:43.709Z,15.71
2018-07-19T03:13:43.637Z,15.69
2018-07-19T03:14:43.568Z,15.69
2018-07-19T03:15:43.495Z,15.69
2018-07-19T03:16:43.422Z,15.59
2018-07-19T03:17:43.348Z,15.60
2018-07-19T03:18:43.278Z,15.57
2018-07-19T03:19:43.206Z,15.56
2018-07-19T03:20:43.148Z,15.65
2018-07-19T03:21:43.059Z,15.54
2018-07-19T03:22:42.987Z,15.62
2018-07-19T03:23:42.921Z,15.64
2018-07-19T03:24:42.843Z,15.54
2018-07-19T03:25:42.764Z,15.62
2018-07-19T03:26:42.700Z,15.72
2018-07-19T03:27:42.626Z,15.72
2018-07-19T03:28:42.549Z,15.71
2018-07-19T03:29:42.476Z,15.71
2018-07-19T03:30:42.404Z,15.65
2018-07-19T03:31:42.335Z,15.74
2018-07-19T03:32:42.261Z,15.67
2018-07-19T03:33:42.189Z,15.67
2018-07-19T03:34:42.109Z,15.72
2018-07-19T03:35:42.044Z,15.60
2018-07-19T03:36:41.970Z,15.59
2018-07-19T03:37:41.898Z,15.59
2018-07-19T03:38:41.823Z,15.68
2018-07-19T03:39:41.755Z,15.65
2018-07-19T03:40:41.724Z,15.71
2018-07-19T03:41:41.615Z,15.75
2018-07-19T03:42:41.538Z,15.76
2018-07-19T03:43:41.461Z,15.64
2018-07-19T03:44:41.397Z,15.57
2018-07-19T03:45:41.319Z,15.71
2018-07-19T03:46:41.246Z,15.82
2018-07-19T03:47:41.171Z,15.84
2018-07-19T03:48:41.102Z,15.78
2018-07-19T03:49:41.039Z,15.67
2018-07-19T03:50:40.973Z,15.59
2018-07-19T03:51:40.890Z,15.67
2018-07-19T03:52:40.810Z,15.56
2018-07-19T03:53:40.738Z,15.60
2018-07-19T03:54:40.665Z,15.64
2018-07-19T03:55:40.593Z,15.56
2018-07-19T03:56:40.519Z,15.64
2018-07-19T03:57:40.449Z,15.59
2018-07-19T03:58:40.375Z,15.64
2018-07-19T03:59:40.305Z,15.64
2018-07-19T04:00:40.244Z,15.57
2018-07-19T04:01:40.157Z,15.62
2018-07-19T04:02:40.086Z,15.51
2018-07-19T04:03:40.010Z,15.59
2018-07-19T04:04:39.940Z,15.65
2018-07-19T04:05:39.867Z,15.57
2018-07-19T04:06:39.798Z,15.57
2018-07-19T04:07:39.718Z,15.59
2018-07-19T04:08:39.651Z,15.57
2018-07-19T04:09:39.578Z,15.62
2018-07-19T04:10:39.499Z,15.65
2018-07-19T04:11:39.438Z,15.56
2018-07-19T04:12:39.359Z,15.67
2018-07-19T04:13:39.286Z,15.74
2018-07-19T04:14:39.212Z,15.65
2018-07-19T04:15:39.141Z,15.65
2018-07-19T04:16:39.071Z,15.72
2018-07-19T04:17:38.997Z,15.68
2018-07-19T04:18:38.921Z,15.69
2018-07-19T04:19:38.841Z,15.68
2018-07-19T04:20:38.777Z,15.76
2018-07-19T04:21:38.710Z,15.74
2018-07-19T04:22:38.634Z,15.76
2018-07-19T04:23:38.555Z,15.76
2018-07-19T04:24:38.497Z,15.75
2018-07-19T04:25:38.413Z,15.76
2018-07-19T04:26:38.349Z,15.80
2018-07-19T04:27:38.271Z,15.82
2018-07-19T04:28:38.197Z,15.82
2018-07-19T04:29:38.125Z,15.74
2018-07-19T04:30:38.055Z,15.72
2018-07-19T04:31:37.985Z,15.78
2018-07-19T04:32:37.907Z,15.82
2018-07-19T04:33:37.843Z,15.83
2018-07-19T04:34:37.764Z,15.87
2018-07-19T04:35:37.698Z,15.93
2018-07-19T04:36:37.616Z,15.94
2018-07-19T04:37:37.547Z,15.82
2018-07-19T04:38:37.472Z,15.84
2018-07-19T04:39:37.398Z,15.94
2018-07-19T04:40:37.340Z,15.87
2018-07-19T04:41:37.255Z,15.92
2018-07-19T04:42:37.191Z,16.00
2018-07-19T04:43:37.110Z,15.83
2018-07-19T04:44:37.054Z,15.93
2018-07-19T04:45:36.970Z,15.80
2018-07-19T04:46:36.901Z,15.89
2018-07-19T04:47:36.822Z,15.89
2018-07-19T04:48:36.772Z,15.90
2018-07-19T04:49:36.676Z,15.92
2018-07-19T04:50:36.605Z,15.92
2018-07-19T04:51:36.531Z,15.92
2018-07-19T04:52:36.459Z,15.92
2018-07-19T04:53:36.387Z,15.87
2018-07-19T04:54:36.346Z,15.97
2018-07-19T04:55:36.245Z,15.93
2018-07-19T04:56:36.170Z,16.00
2018-07-19T04:57:36.099Z,15.96
2018-07-19T04:58:36.030Z,15.97
2018-07-19T04:59:35.954Z,16.07
2018-07-19T05:00:35.879Z,16.12
2018-07-19T05:01:35.813Z,16.02
2018-07-19T05:02:35.740Z,16.15
2018-07-19T05:03:35.665Z,16.21
2018-07-19T05:04:35.593Z,16.23
2018-07-19T05:05:35.520Z,16.23
2018-07-19T05:06:35.450Z,16.31
2018-07-19T05:07:35.375Z,16.25
2018-07-19T05:08:35.306Z,16.31
2018-07-19T05:09:35.231Z,16.41
2018-07-19T05:10:35.159Z,16.33
2018-07-19T05:11:35.087Z,16.39
2018-07-19T05:12:35.014Z,16.39
2018-07-19T05:13:34.943Z,16.46
2018-07-19T05:14:34.871Z,16.42
2018-07-19T05:15:34.801Z,16.49
2018-07-19T05:16:34.725Z,16.53
2018-07-19T05:17:34.654Z,16.53
2018-07-19T05:18:34.602Z,16.60
2018-07-19T05:19:34.508Z,16.58
2018-07-19T05:20:34.436Z,16.60
2018-07-19T05:21:34.369Z,16.68
2018-07-19T05:22:34.293Z,16.75
2018-07-19T05:23:34.221Z,16.76
2018-07-19T05:24:34.148Z,16.79
2018-07-19T05:25:34.076Z,16.73
2018-07-19T05:26:34.022Z,16.82
2018-07-19T05:27:33.933Z,16.81
2018-07-19T05:28:33.867Z,16.91
2018-07-19T05:29:33.789Z,16.93
2018-07-19T05:30:33.716Z,16.97
2018-07-19T05:31:33.645Z,17.00
2018-07-19T05:32:33.577Z,17.01
2018-07-19T05:33:33.502Z,17.01
2018-07-19T05:34:33.466Z,17.06
2018-07-19T05:35:33.373Z,17.04
2018-07-19T05:36:33.288Z,17.08
2018-07-19T05:37:33.229Z,17.03
2018-07-19T05:38:33.145Z,17.00
2018-07-19T05:39:33.072Z,17.15
2018-07-19T05:40:33.044Z,17.14
2018-07-19T05:41:32.928Z,17.16
2018-07-19T05:42:32.860Z,17.22
2018-07-19T05:43:32.786Z,17.16
2018-07-19T05:44:32.717Z,17.18
2018-07-19T05:45:32.642Z,17.30
2018-07-19T05:46:32.570Z,17.34
2018-07-19T05:47:32.497Z,17.40
2018-07-19T05:48:32.427Z,17.48
2018-07-19T05:49:32.355Z,17.43
2018-07-19T05:50:32.281Z,17.44
2018-07-19T05:51:32.213Z,17.51
2018-07-19T05:52:32.140Z,17.44
2018-07-19T05:53:32.068Z,17.52
2018-07-19T05:54:32.006Z,17.59
2018-07-19T05:55:31.928Z,17.64
2018-07-19T05:56:31.861Z,17.64
2018-07-19T05:57:31.810Z,17.78
2018-07-19T05:58:31.719Z,17.79
2018-07-19T05:59:31.635Z,17.81
2018-07-19T06:00:31.572Z,17.89
2018-07-19T06:01:31.496Z,17.79
2018-07-19T06:02:31.434Z,17.78
2018-07-19T06:03:31.355Z,17.87
2018-07-19T06:04:31.288Z,17.79
2018-07-19T06:05:31.212Z,17.77
2018-07-19T06:06:31.146Z,17.92
2018-07-19T06:07:31.067Z,17.92
2018-07-19T06:08:30.999Z,17.89
2018-07-19T06:09:30.959Z,17.86
2018-07-19T06:10:30.859Z,17.86
2018-07-19T06:11:30.789Z,17.95
2018-07-19T06:12:30.710Z,18.02
2018-07-19T06:13:30.643Z,18.02
2018-07-19T06:14:30.574Z,18.15
2018-07-19T06:15:30.499Z,18.17
2018-07-19T06:16:30.425Z,18.21
2018-07-19T06:17:30.372Z,18.23
2018-07-19T06:18:30.310Z,18.30
2018-07-19T06:19:30.214Z,18.36
2018-07-19T06:20:30.154Z,18.50
2018-07-19T06:21:30.087Z,18.42
2018-07-19T06:22:30.016Z,18.36
2018-07-19T06:23:29.933Z,18.42
2018-07-19T06:24:29.873Z,18.37
2018-07-19T06:25:29.794Z,18.36
2018-07-19T06:26:29.720Z,18.48
2018-07-19T06:27:29.649Z,18.52
2018-07-19T06:28:29.577Z,18.57
2018-07-19T06:29:29.509Z,18.54
2018-07-19T06:30:29.436Z,18.63
2018-07-19T06:31:29.415Z,18.54
2018-07-19T06:32:29.294Z,18.55
2018-07-19T06:33:29.226Z,18.67
2018-07-19T06:34:29.192Z,18.58
2018-07-19T06:35:29.083Z,18.73
2018-07-19T06:36:29.006Z,18.78
2018-07-19T06:37:28.944Z,18.87
2018-07-19T06:38:28.875Z,18.92
2018-07-19T06:39:28.798Z,19.06
2018-07-19T06:40:28.730Z,19.08
2018-07-19T06:41:28.657Z,19.13
2018-07-19T06:42:28.589Z,19.18
2018-07-19T06:43:28.520Z,19.23
2018-07-19T06:44:28.447Z,19.23
2018-07-19T06:45:28.379Z,19.21
2018-07-19T06:46:28.306Z,19.36
2018-07-19T06:47:28.240Z,19.31
2018-07-19T06:48:28.166Z,19.31
2018-07-19T06:49:28.101Z,19.47
2018-07-19T06:50:28.027Z,19.46
2018-07-19T06:51:27.954Z,19.58
2018-07-19T06:52:27.887Z,19.63
2018-07-19T06:53:27.823Z,19.68
2018-07-19T06:54:27.748Z,19.65
2018-07-19T06:55:27.672Z,19.77
2018-07-19T06:56:27.638Z,19.68
2018-07-19T06:57:27.540Z,19.65
2018-07-19T06:58:27.467Z,19.78
2018-07-19T06:59:27.390Z,19.83
2018-07-19T07:00:27.324Z,19.87
2018-07-19T07:01:27.251Z,19.87
2018-07-19T07:02:27.185Z,19.86
2018-07-19T07:03:27.130Z,19.81
2018-07-19T07:04:27.038Z,19.86
2018-07-19T07:05:26.971Z,19.96
2018-07-19T07:06:26.905Z,20.05
2018-07-19T07:07:26.843Z,20.14
2018-07-19T07:08:26.765Z,20.23
2018-07-19T07:09:26.696Z,20.18
2018-07-19T07:10:26.625Z,20.31
2018-07-19T07:11:26.552Z,20.42
2018-07-19T07:12:26.485Z,20.52
2018-07-19T07:13:26.414Z,20.57
2018-07-19T07:14:26.347Z,20.64
2018-07-19T07:15:26.274Z,20.69
2018-07-19T07:16:26.213Z,20.79
2018-07-19T07:17:26.129Z,20.85
2018-07-19T07:18:26.079Z,20.94
2018-07-19T07:19:25.997Z,20.84
2018-07-19T07:20:25.924Z,20.91
2018-07-19T07:21:25.866Z,20.95
2018-07-19T07:22:25.785Z,20.91
2018-07-19T07:23:25.720Z,20.98
2018-07-19T07:24:25.650Z,20.98
2018-07-19T07:25:25.580Z,21.06
2018-07-19T07:26:25.512Z,21.19
2018-07-19T07:27:25.449Z,21.22
2018-07-19T07:28:25.413Z,21.16
2018-07-19T07:29:25.301Z,21.25
2018-07-19T07:30:25.235Z,21.42
2018-07-19T07:31:25.162Z,21.42
2018-07-19T07:32:25.091Z,21.50
2018-07-19T07:33:25.025Z,21.54
2018-07-19T07:34:24.958Z,21.64
2018-07-19T07:35:24.884Z,21.64
2018-07-19T07:36:24.813Z,21.62
2018-07-19T07:37:24.758Z,21.65
2018-07-19T07:38:24.678Z,21.75
2018-07-19T07:39:24.611Z,21.77
2018-07-19T07:40:24.541Z,21.69
2018-07-19T07:41:24.473Z,21.72
2018-07-19T07:42:24.407Z,21.71
2018-07-19T07:43:24.334Z,21.80
2018-07-19T07:44:24.268Z,21.65
2018-07-19T07:45:24.204Z,21.68
2018-07-19T07:46:24.157Z,21.75
2018-07-19T07:47:24.063Z,21.79
2018-07-19T07:48:23.992Z,21.94
2018-07-19T07:49:23.926Z,21.96
2018-07-19T07:50:23.857Z,22.06
2018-07-19T07:51:23.788Z,22.03
2018-07-19T07:52:23.730Z,22.09
2018-07-19T07:53:23.653Z,21.99
2018-07-19T07:54:23.588Z,22.09
2018-07-19T07:55:23.550Z,22.03
2018-07-19T07:56:23.448Z,22.03
2018-07-19T07:57:23.382Z,22.09
2018-07-19T07:58:23.323Z,22.27
2018-07-19T07:59:23.290Z,22.30
2018-07-19T08:00:23.197Z,22.36
2018-07-19T08:01:23.110Z,22.25
2018-07-19T08:02:23.041Z,22.27
2018-07-19T08:03:22.977Z,22.37
2018-07-19T08:04:22.904Z,22.39
2018-07-19T08:05:22.847Z,22.51
2018-07-19T08:06:22.769Z,22.55
2018-07-19T08:07:22.701Z,22.75
2018-07-19T08:08:22.636Z,22.77
2018-07-19T08:09:22.567Z,22.95
2018-07-19T08:10:22.500Z,22.92
2018-07-19T08:11:22.427Z,23.02
2018-07-19T08:12:22.365Z,22.92
2018-07-19T08:13:22.294Z,23.19
2018-07-19T08:14:22.231Z,23.19
2018-07-19T08:15:22.161Z,23.27
2018-07-19T08:16:22.130Z,23.46
2018-07-19T08:17:22.035Z,23.53
2018-07-19T08:18:21.961Z,23.23
2018-07-19T08:19:21.897Z,23.25
2018-07-19T08:20:21.827Z,23.43
2018-07-19T08:21:21.767Z,23.48
2018-07-19T08:22:21.692Z,23.54
2018-07-19T08:23:21.630Z,23.58
2018-07-19T08:24:21.582Z,23.68
2018-07-19T08:25:21.498Z,23.78
2018-07-19T08:26:21.424Z,23.90
2018-07-19T08:27:21.358Z,23.93
2018-07-19T08:28:21.292Z,23.98
2018-07-19T08:29:21.227Z,24.08
2018-07-19T08:30:21.180Z,24.12
2018-07-19T08:31:21.090Z,24.18
2018-07-19T08:32:21.053Z,24.16
2018-07-19T08:33:20.960Z,24.08
2018-07-19T08:34:20.899Z,24.10
2018-07-19T08:35:20.825Z,24.18
2018-07-19T08:36:20.759Z,24.18
2018-07-19T08:37:20.693Z,24.15
2018-07-19T08:38:20.623Z,24.12
2018-07-19T08:39:20.563Z,24.09
2018-07-19T08:40:20.509Z,24.18
2018-07-19T08:41:20.461Z,24.18
2018-07-19T08:42:20.357Z,24.18
2018-07-19T08:43:20.320Z,24.18
2018-07-19T08:44:20.229Z,24.27
2018-07-19T08:45:20.162Z,24.31
2018-07-19T08:46:20.099Z,24.47
2018-07-19T08:47:20.033Z,24.61
2018-07-19T08:48:19.974Z,24.68
2018-07-19T08:49:19.920Z,24.67
2018-07-19T08:50:19.832Z,24.73
2018-07-19T08:51:19.769Z,24.45
2018-07-19T08:52:19.701Z,24.39
2018-07-19T08:53:19.635Z,24.60
2018-07-19T08:54:19.572Z,24.58
2018-07-19T08:55:19.501Z,24.46
2018-07-19T08:56:19.438Z,24.76
2018-07-19T08:57:19.376Z,24.62
2018-07-19T08:58:19.310Z,24.61
2018-07-19T08:59:19.238Z,24.67
2018-07-19T09:00:19.174Z,24.69
2018-07-19T09:01:19.109Z,24.88
2018-07-19T09:02:19.090Z,25.02
2018-07-19T09:03:18.986Z,25.10
2018-07-19T09:04:18.913Z,25.18
2018-07-19T09:05:18.846Z,25.21
2018-07-19T09:06:18.784Z,24.93
2018-07-19T09:07:18.728Z,24.88
2018-07-19T09:08:18.701Z,24.65
2018-07-19T09:09:18.578Z,24.81
2018-07-19T09:10:18.520Z,24.85
2018-07-19T09:11:18.458Z,24.84
2018-07-19T09:12:18.388Z,24.95
2018-07-19T09:13:18.322Z,24.84
2018-07-19T09:14:18.258Z,24.96
2018-07-19T09:15:18.192Z,25.02
2018-07-19T09:16:18.126Z,25.13
2018-07-19T09:17:18.063Z,25.27
2018-07-19T09:18:18.011Z,25.36
2018-07-19T09:19:17.952Z,25.15
2018-07-19T09:20:17.863Z,25.33
2018-07-19T09:21:17.807Z,25.27
2018-07-19T09:22:17.734Z,25.14
2018-07-19T09:23:17.670Z,25.09
2018-07-19T09:24:17.606Z,25.00
2018-07-19T09:25:17.545Z,25.35
2018-07-19T09:26:17.486Z,25.76
2018-07-19T09:27:17.411Z,25.94
2018-07-19T09:28:17.346Z,26.25
2018-07-19T09:29:17.309Z,26.81
2018-07-19T09:30:17.223Z,27.37
2018-07-19T09:31:17.153Z,27.94
2018-07-19T09:32:17.085Z,28.17
2018-07-19T09:33:17.029Z,28.54
2018-07-19T09:34:16.965Z,28.85
2018-07-19T09:35:16.897Z,29.27
2018-07-19T09:36:16.847Z,28.78
2018-07-19T09:37:16.784Z,28.71
2018-07-19T09:38:16.796Z,28.25
2018-07-19T09:39:16.658Z,28.25
2018-07-19T09:40:16.599Z,28.86
2018-07-19T09:41:16.563Z,29.15
2018-07-19T09:42:16.484Z,29.63
2018-07-19T09:43:16.419Z,29.82
2018-07-19T09:44:16.362Z,30.11
2018-07-19T09:45:16.302Z,30.20
2018-07-19T09:46:16.244Z,30.46
2018-07-19T09:47:16.189Z,29.79
2018-07-19T09:48:16.128Z,30.01
2018-07-19T09:49:16.068Z,29.98
2018-07-19T09:50:16.017Z,29.71
2018-07-19T09:51:15.954Z,29.55
2018-07-19T09:52:15.911Z,29.82
2018-07-19T09:53:15.840Z,29.71
2018-07-19T09:54:15.839Z,29.45
2018-07-19T09:55:15.728Z,29.65
2018-07-19T09:56:15.664Z,30.23
2018-07-19T09:57:15.615Z,30.97
2018-07-19T09:58:15.556Z,31.13
2018-07-19T09:59:15.498Z,30.31
2018-07-19T10:00:15.444Z,31.13
2018-07-19T10:01:15.387Z,31.61
2018-07-19T10:02:15.334Z,31.88
2018-07-19T10:03:15.304Z,32.43
2018-07-19T10:04:15.238Z,32.44
2018-07-19T10:05:15.152Z,31.93
2018-07-19T10:06:15.121Z,31.51
2018-07-19T10:07:15.053Z,32.11
2018-07-19T10:08:15.014Z,32.19
2018-07-19T10:09:14.934Z,32.57
2018-07-19T10:10:14.887Z,33.14
2018-07-19T10:11:14.823Z,32.48
2018-07-19T10:12:14.802Z,31.17
2018-07-19T10:13:14.709Z,30.46
2018-07-19T10:14:14.687Z,29.94
2018-07-19T10:15:14.606Z,30.57
2018-07-19T10:16:14.547Z,31.36
2018-07-19T10:17:14.491Z,32.21
2018-07-19T10:18:14.433Z,32.32
2018-07-19T10:19:14.380Z,32.74
2018-07-19T10:20:14.326Z,33.23
2018-07-19T10:21:14.269Z,33.09
2018-07-19T10:22:14.217Z,33.15
2018-07-19T10:23:14.156Z,32.14
2018-07-19T10:24:14.131Z,31.75
2018-07-19T10:25:14.049Z,32.43
2018-07-19T10:26:13.997Z,32.59
2018-07-19T10:27:13.943Z,32.25
2018-07-19T10:28:13.885Z,32.72
2018-07-19T10:29:13.832Z,33.32
2018-07-19T10:30:13.775Z,33.68
2018-07-19T10:31:13.725Z,33.94
2018-07-19T10:32:13.791Z,33.86
2018-07-19T10:33:13.611Z,33.91
2018-07-19T10:34:13.604Z,33.76
2018-07-19T10:35:13.507Z,33.42
2018-07-19T10:36:13.451Z,33.81
2018-07-19T10:37:13.391Z,33.49
2018-07-19T10:38:13.343Z,33.88
2018-07-19T10:39:13.283Z,34.37
2018-07-19T10:40:13.238Z,34.54
2018-07-19T10:41:13.182Z,34.69
2018-07-19T10:42:13.126Z,33.95
2018-07-19T10:43:13.074Z,33.84
2018-07-19T10:44:13.017Z,34.17
2018-07-19T10:45:12.958Z,33.60
2018-07-19T10:46:12.908Z,33.75
2018-07-19T10:47:12.853Z,34.06
2018-07-19T10:48:12.804Z,33.87
2018-07-19T10:49:12.747Z,33.18
2018-07-19T10:50:12.693Z,32.89
2018-07-19T10:51:12.635Z,32.78
2018-07-19T10:52:12.580Z,32.43
2018-07-19T10:53:12.542Z,32.11
2018-07-19T10:54:12.469Z,31.62
2018-07-19T10:55:12.414Z,31.36
2018-07-19T10:56:12.357Z,30.70
2018-07-19T10:57:12.315Z,30.39
2018-07-19T10:58:12.241Z,30.54
2018-07-19T10:59:12.189Z,30.42
2018-07-19T11:00:12.125Z,30.02
2018-07-19T11:01:12.067Z,29.80
2018-07-19T11:02:12.045Z,30.04
2018-07-19T11:03:11.963Z,30.24
2018-07-19T11:04:11.894Z,30.10
2018-07-19T11:05:11.833Z,30.16
2018-07-19T11:06:11.776Z,30.38
2018-07-19T11:07:11.721Z,30.47
2018-07-19T11:08:11.649Z,30.92
2018-07-19T11:09:11.595Z,31.14
2018-07-19T11:10:11.539Z,31.12
2018-07-19T11:11:11.476Z,31.16
2018-07-19T11:12:11.421Z,31.10
2018-07-19T11:13:11.363Z,31.01
2018-07-19T11:14:11.298Z,30.88
2018-07-19T11:15:11.236Z,30.72
2018-07-19T11:16:11.177Z,30.55
2018-07-19T11:17:11.117Z,30.49
2018-07-19T11:18:11.062Z,30.34
2018-07-19T11:19:10.994Z,30.01
2018-07-19T11:20:10.939Z,29.79
2018-07-19T11:21:10.876Z,29.82
2018-07-19T11:22:10.815Z,30.07
2018-07-19T11:23:10.763Z,29.85
2018-07-19T11:24:10.692Z,30.05
2018-07-19T11:25:10.630Z,30.35
2018-07-19T11:26:10.589Z,30.80
2018-07-19T11:27:10.509Z,31.32
2018-07-19T11:28:10.451Z,31.66
2018-07-19T11:29:10.383Z,31.75
2018-07-19T11:30:10.331Z,31.41
2018-07-19T11:31:10.265Z,31.36
2018-07-19T11:32:10.209Z,31.46
2018-07-19T11:33:10.151Z,31.61
2018-07-19T11:34:10.087Z,31.85
2018-07-19T11:35:10.061Z,31.57
2018-07-19T11:36:09.971Z,31.44
2018-07-19T11:37:09.909Z,31.25
2018-07-19T11:38:09.849Z,30.92
2018-07-19T11:39:09.786Z,30.65
2018-07-19T11:40:09.732Z,30.35
2018-07-19T11:41:09.675Z,30.51
2018-07-19T11:42:09.622Z,30.34
2018-07-19T11:43:09.553Z,30.31
2018-07-19T11:44:09.515Z,30.45
2018-07-19T11:45:09.432Z,30.35
2018-07-19T11:46:09.377Z,30.39
2018-07-19T11:47:09.312Z,30.34
2018-07-19T11:48:09.249Z,30.17
2018-07-19T11:49:09.237Z,30.23
2018-07-19T11:50:09.129Z,30.04
2018-07-19T11:51:09.077Z,29.94
2018-07-19T11:52:09.017Z,29.53
2018-07-19T11:53:08.946Z,29.37
2018-07-19T11:54:08.881Z,29.39
2018-07-19T11:55:08.825Z,29.39
2018-07-19T11:56:08.765Z,29.42
2018-07-19T11:57:08.698Z,29.33
2018-07-19T11:58:08.640Z,29.18
2018-07-19T11:59:08.577Z,28.77
2018-07-19T12:00:08.511Z,29.02
2018-07-19T12:01:08.457Z,28.78
2018-07-19T12:02:08.412Z,28.76
2018-07-19T12:03:08.328Z,28.78
2018-07-19T12:04:08.276Z,28.77
2018-07-19T12:05:08.203Z,28.90
2018-07-19T12:06:08.192Z,29.00
2018-07-19T12:07:08.078Z,29.08
2018-07-19T12:08:08.016Z,29.33
2018-07-19T12:09:07.963Z,29.36
2018-07-19T12:10:07.893Z,29.55
2018-07-19T12:11:07.832Z,29.74
2018-07-19T12:12:07.767Z,29.11
2018-07-19T12:13:07.738Z,29.05
2018-07-19T12:14:07.647Z,29.11
2018-07-19T12:15:07.580Z,29.27
2018-07-19T12:16:07.516Z,29.14
2018-07-19T12:17:07.456Z,28.76
2018-07-19T12:18:07.460Z,29.09
2018-07-19T12:19:07.331Z,29.15
2018-07-19T12:20:07.272Z,29.19
2018-07-19T12:21:07.208Z,29.26
2018-07-19T12:22:07.144Z,29.31
2018-07-19T12:23:07.080Z,29.37
2018-07-19T12:24:07.028Z,29.53
2018-07-19T12:25:06.955Z,29.52
2018-07-19T12:26:06.895Z,29.67
2018-07-19T12:27:06.831Z,29.71
2018-07-19T12:28:06.779Z,29.78
2018-07-19T12:29:06.710Z,29.78
2018-07-19T12:30:06.644Z,29.55
2018-07-19T12:31:06.577Z,29.67
2018-07-19T12:32:06.527Z,29.67
2018-07-19T12:33:06.459Z,29.57
2018-07-19T12:34:06.391Z,29.34
2018-07-19T12:35:06.331Z,29.37
2018-07-19T12:36:06.265Z,29.52
2018-07-19T12:37:06.208Z,29.52
2018-07-19T12:38:06.149Z,29.27
2018-07-19T12:39:06.080Z,29.21
2018-07-19T12:40:06.011Z,29.18
2018-07-19T12:41:05.954Z,29.36
2018-07-19T12:42:05.890Z,29.39
2018-07-19T12:43:05.841Z,29.39
2018-07-19T12:44:05.765Z,29.48
2018-07-19T12:45:05.704Z,29.45
2018-07-19T12:46:05.664Z,29.67
2018-07-19T12:47:05.583Z,29.60
2018-07-19T12:48:05.515Z,29.43
2018-07-19T12:49:05.455Z,29.53
2018-07-19T12:50:05.392Z,29.53
2018-07-19T12:51:05.331Z,29.53
2018-07-19T12:52:05.273Z,29.53
2018-07-19T12:53:05.203Z,29.51
2018-07-19T12:54:05.139Z,29.39
2018-07-19T12:55:05.076Z,29.14
2018-07-19T12:56:05.005Z,29.23
2018-07-19T12:57:04.949Z,29.30
2018-07-19T12:58:04.885Z,29.41
2018-07-19T12:59:04.820Z,29.36
2018-07-19T13:00:04.765Z,29.48
2018-07-19T13:01:04.693Z,29.64
2018-07-19T13:02:04.630Z,29.53
2018-07-19T13:03:04.571Z,29.53
2018-07-19T13:04:04.502Z,29.61
2018-07-19T13:05:04.446Z,29.79
2018-07-19T13:06:04.378Z,29.89
2018-07-19T13:07:04.313Z,29.89
2018-07-19T13:08:04.258Z,29.79
2018-07-19T13:09:04.187Z,29.74
2018-07-19T13:10:04.125Z,29.65
2018-07-19T13:11:04.062Z,29.80
2018-07-19T13:12:03.995Z,29.94
2018-07-19T13:13:03.937Z,29.98
2018-07-19T13:14:03.875Z,30.15
2018-07-19T13:15:03.858Z,30.11
2018-07-19T13:16:03.748Z,30.19
2018-07-19T13:17:03.686Z,30.24
2018-07-19T13:18:03.623Z,30.34
2018-07-19T13:19:03.562Z,30.35
2018-07-19T13:20:03.497Z,30.49
2018-07-19T13:21:03.433Z,30.46
2018-07-19T13:22:03.376Z,30.37
2018-07-19T13:23:03.311Z,30.37
2018-07-19T13:24:03.293Z,30.27